Badger Spring Valley, Nevada Weather observations

Data are for 10 minute period ending at time listed.
 Day   Time   Solar   Ave.   Ave.  Ave.  Vector  Max.   Baro.   Total    
  of    of     Rad.   Air    Rel.  Wind   Wind   Wind  Press.  Precip.   
Year   Day            Temp.  Hum.  Speed  Dir.   Gust                    
2016   (PST)  Kw/m2    F      %     mph   deg.    mph    mb.     in.     
-------------------------------------------------------------------------
 146    0:00   0.00   52.3    44   10.0   275    14.6   828.2    0.00 
 146    0:10   0.00   51.5    45    7.6   285    13.4   828.4    0.00 
 146    0:20   0.00   50.2    48    9.0   291    13.2   828.3    0.00 
 146    0:30   0.00   48.9    51    8.1   298     9.6   828.3    0.00 
 146    0:40   0.00   47.5    54    7.4   306     8.5   828.4    0.00 
 146    0:50   0.00   46.9    55    8.5   300    10.3   828.3    0.00 
 146    1:00   0.00   47.2    55    9.2   298    11.8   828.3    0.00 
 146    1:10   0.00   47.7    54   10.0   303    11.6   828.2    0.00 
 146    1:20   0.00   47.2    55   10.1   301    11.8   828.2    0.00 
 146    1:30   0.00   47.9    53   10.0   299    11.9   828.1    0.00 
 146    1:40   0.00   49.4    50    9.0   286    12.6   828.1    0.00 
 146    1:50   0.00   49.6    49    9.4   286    13.1   828.1    0.00 
 146    2:00   0.00   49.3    49    9.5   294    12.2   828.1    0.00 
 146    2:10   0.00   49.3    49    8.6   284    10.5   828.1    0.00 
 146    2:20   0.00   49.3    49    9.3   285    11.7   828.1    0.00 
 146    2:30   0.00   48.4    51    7.8   286    10.4   828.1    0.00 
 146    2:40   0.00   46.7    55    7.7   274     9.3   828.2    0.00 
 146    2:50   0.00   47.8    52    8.4   280     9.9   828.2    0.00 
 146    3:00   0.00   47.4    53    8.4   286    10.3   828.2    0.00 
 146    3:10   0.00   46.7    55    7.2   296     9.5   828.2    0.00 
 146    3:20   0.00   45.4    58    3.5   328     5.8   828.2    0.00 
 146    3:30   0.00   46.1    56    4.5   292     6.2   828.2    0.00 
 146    3:40   0.00   45.5    58    6.4   292     8.0   828.2    0.00 
 146    3:50   0.00   44.6    60    5.0   312     6.6   828.3    0.00 
 146    4:00   0.00   45.7    57    3.9   299     6.1   828.3    0.00 
 146    4:10   0.00   45.3    58    4.8   321     7.8   828.4    0.00 
 146    4:20   0.00   45.2    58    5.0   354     7.1   828.4    0.00 
 146    4:30   0.00   45.5    58    6.3   354     7.7   828.5    0.00 
 146    4:40   0.01   45.8    57    5.0     7     6.4   828.6    0.00 
 146    4:50   0.03   46.2    56    2.7   345     4.3   828.7    0.00 
 146    5:00   0.06   46.9    55    3.3   309     5.5   828.7    0.00 
 146    5:10   0.09   48.0    54    3.3   298     4.1   828.7    0.00 
 146    5:20   0.12   49.7    53    4.8   291     6.1   828.8    0.00 
 146    5:30   0.15   50.3    52    5.1   292     6.4   828.8    0.00 
 146    5:40   0.18   52.1    49    3.9   289     5.0   828.8    0.00 
 146    5:50   0.22   53.8    45    2.9   292     4.2   828.8    0.00 
 146    6:00   0.25   55.0    41    1.5   315     2.6   828.8    0.00 
 146    6:10   0.29   56.4    39    1.1   329     2.6   828.9    0.00 
 146    6:20   0.33   56.8    38    1.9    26     4.3   828.9    0.00 
 146    6:30   0.37   56.8    38    2.4    15     4.7   829.1    0.00 
 146    6:40   0.41   57.2    38    2.5    46     5.0   829.3    0.00 
 146    6:50   0.45   57.4    39    4.5    72     9.6   829.3    0.00 
 146    7:00   0.49   56.5    42    6.2     6    10.1   829.4    0.00 
 146    7:10   0.53   56.1    42    7.7   358    11.0   829.4    0.00 
 146    7:20   0.57   56.5    42    7.3     6    10.5   829.4    0.00 
 146    7:30   0.60   56.5    42    6.8   354     9.9   829.4    0.00 
 146    7:40   0.64   57.1    40    6.1    26    11.5   829.5    0.00 
 146    7:50   0.68   57.7    37    6.2    60    11.8   829.6    0.00 
 146    8:00   0.72   58.1    36    6.8    80    11.5   829.7    0.00 
 146    8:10   0.75   58.2    35    6.2    97    10.5   829.8    0.00 
 146    8:20   0.79   58.7    34    5.5    58    11.8   829.9    0.00 
 146    8:30   0.82   58.5    35    5.0    69    12.2   830.0    0.00 
 146    8:40   0.86   59.0    34    6.1    69    10.6   830.0    0.00 
 146    8:50   0.90   59.2    34    7.0    78    14.7   830.0    0.00 
 146    9:00   0.92   60.0    34    7.9    68    13.7   830.1    0.00 
 146    9:10   0.92   59.7    33    7.3    96    13.1   830.1    0.00 
 146    9:20   0.95   59.3    33    7.3    74    13.0   830.1    0.00 
 146    9:30   0.99   60.4    32    7.9   121    15.5   830.1    0.00 
 146    9:40   0.82   60.3    30    8.5   106    14.5   830.1    0.00 
 146    9:50   0.90   59.7    30    7.8   123    12.3   830.0    0.00 
 146   10:00   1.12   60.0    29    6.0    72    11.3   830.0    0.00 
 146   10:10   1.13   61.0    28    6.6   125    12.9   830.1    0.00 
 146   10:20   0.61   60.8    28    7.3   126    17.0   830.1    0.00 
 146   10:30   0.35   59.5    29    5.9   189    10.9   830.1    0.00 
 146   10:40   100.00   59.4    29    6.2   167    14.9   830.1    0.00 
 146   10:50   100.00   61.2    26    7.4   124    19.3   830.0    0.00 
 146   11:00   1.24   61.9    25    9.4   134    16.9   830.0    0.00 
 146   11:10   1.26   63.4    24   12.6   145    20.0   830.0    0.00 
 146   11:20   1.08   62.3    24   10.0   133    16.3   829.9    0.00 
 146   11:30   1.13   62.5    24    7.9   144    14.6   829.8    0.00 
 146   11:40   1.00   63.5    22    9.5   162    16.4   829.7    0.00 
 146   11:50   0.55   61.7    22    5.6   102    10.4   829.7    0.00 
 146   12:00   100.00   62.1    23   10.3   108    18.6   829.6    0.00 
 146   12:10   1.26   64.0    22   10.7   116    18.1   829.5    0.00 
 146   12:20   1.01   63.7    21    8.3   150    18.9   829.5    0.00 
 146   12:30   1.19   63.7    20    9.8   123    18.2   829.5    0.00 
 146   12:40   1.18   63.8    20    9.0   110    16.7   829.4    0.00 
 146   12:50   1.17   64.4    20    6.9   177    14.0   829.3    0.00 
 146   13:00   1.14   64.7    20    9.4   143    17.5   829.2    0.00 
 146   13:10   1.13   64.2    21    6.4   127    15.1   829.2    0.00 
 146   13:20   1.13   64.2    21    7.6   125    19.3   829.2    0.00 
 146   13:30   1.14   64.7    20    9.6   146    17.1   829.1    0.00 
 146   13:40   1.13   65.6    20    8.7   156    17.1   828.9    0.00 
 146   13:50   0.85   64.7    19   10.2   147    20.0   828.9    0.00 
 146   14:00   1.01   64.3    20    7.3   170    16.2   828.8    0.00 
 146   14:10   0.72   64.1    20   11.6   119    18.6   828.7    0.00 
 146   14:20   1.00   65.1    19   10.5   136    21.3   828.7    0.00 
 146   14:30   0.94   64.5    19    8.5   112    18.6   828.6    0.00 
 146   14:40   0.92   65.5    19   10.0   133    19.3   828.6    0.00 
 146   14:50   0.90   64.5    19   11.9   120    20.7   828.6    0.00 
 146   15:00   0.33   63.7    20    8.8   149    16.5   828.5    0.00 
 146   15:10   0.49   63.4    20    8.8   171    16.7   828.4    0.00 
 146   15:20   0.53   63.8    20    9.8   154    17.5   828.4    0.00 
 146   15:30   0.18   62.3    22    9.2   145    17.0   828.4    0.00 
 146   15:40   0.22   61.7    24    9.0   217    15.5   828.4    0.00 
 146   15:50   0.71   62.9    24    9.8   221    16.6   828.3    0.00 
 146   16:00   0.72   64.2    23   11.7   215    18.3   828.3    0.00 
 146   16:10   0.67   63.5    25   12.1   233    22.4   828.4    0.00 
 146   16:20   0.59   63.4    25   12.1   228    18.8   828.4    0.00 
 146   16:30   0.54   62.5    26   11.5   244    18.1   828.4    0.00 
 146   16:40   0.45   62.1    27   11.0   246    16.4   828.4    0.00 
 146   16:50   0.40   61.3    27   11.9   252    16.7   828.4    0.00 
 146   17:00   0.37   61.2    27   11.2   239    15.9   828.3    0.00 
 146   17:10   0.33   61.2    27   11.6   251    16.7   828.2    0.00 
 146   17:20   0.29   61.0    27   11.9   265    17.3   828.2    0.00 
 146   17:30   0.25   60.6    27    8.6   262    12.4   828.2    0.00 
 146   17:40   0.22   61.0    27    7.1   261    11.8   828.2    0.00 
 146   17:50   0.18   60.6    26    8.8   267    14.0   828.2    0.00 
 146   18:00   0.13   60.0    27    7.8   246    12.8   828.2    0.00 
 146   18:10   0.05   59.0    28    7.6   251    13.0   828.3    0.00 
 146   18:20   0.04   58.2    29    8.9   260    18.6   828.3    0.00 
 146   18:30   0.03   57.0    33   12.2   270    17.0   828.3    0.00 
 146   18:40   0.02   56.4    34   10.0   281    14.2   828.2    0.00 
 146   18:50   0.01   55.8    35   11.0   296    14.7   828.2    0.00 
 146   19:00   0.00   55.4    35   11.2   291    15.9   828.1    0.00 
 146   19:10   0.00   55.1    36   11.2   298    15.7   828.1    0.00 
 146   19:20   0.00   55.1    35   11.1   298    16.1   828.2    0.00 
 146   19:30   0.00   55.0    35   11.7   289    18.4   828.3    0.00 
 146   19:40   0.00   54.5    38   13.6   291    20.0   828.3    0.00 
 146   19:50   0.00   54.0    42   15.5   292    20.7   828.4    0.00 
 146   20:00   0.00   53.5    44   14.9   293    22.5   828.4    0.00 
 146   20:10   0.00   53.1    45   13.8   292    19.3   828.6    0.00 
 146   20:20   0.00   53.0    44   12.6   291    18.0   828.6    0.00 
 146   20:30   0.00   52.6    44   10.5   288    13.9   828.7    0.00 
 146   20:40   0.00   52.1    44    9.0   298    13.0   828.7    0.00 
 146   20:50   0.00   51.8    40    4.6   314     7.7   828.8    0.00 
 146   21:00   0.00   51.8    41    7.7   352    12.9   828.9    0.00 
 146   21:10   0.00   53.6    37    8.0   349    14.0   829.0    0.00 
 146   21:20   0.00   52.8    38    5.4   301     9.0   829.0    0.00 
 146   21:30   0.00   52.5    39    4.3   323     7.2   829.1    0.00 
 146   21:40   0.00   53.7    37    5.5   330    10.7   829.1    0.00 
 146   21:50   0.00   54.0    37    6.8   338    11.8   829.1    0.00 
 146   22:00   0.00   54.1    38    7.9   343    13.1   829.1    0.00 
 146   22:10   0.00   53.8    39    7.5   349    13.6   829.1    0.00 

Return to Badger Spring Valley graphs page.


Western Regional Climate Center,wrcc@dri.edu